sensor_id;sensor_type;location;lat;lon;timestamp;temperature;humidity
20204;DHT22;10261;49.010;12.034;2022-12-18T00:00:15;1.00;99.90
20204;DHT22;10261;49.010;12.034;2022-12-18T00:01:20;0.90;99.90
20204;DHT22;10261;49.010;12.034;2022-12-18T00:02:22;1.00;99.90
20204;DHT22;10261;49.010;12.034;2022-12-18T00:03:25;1.00;99.90
20204;DHT22;10261;49.010;12.034;2022-12-18T00:04:28;1.00;99.90
20204;DHT22;10261;49.010;12.034;2022-12-18T00:05:31;1.10;99.90
20204;DHT22;10261;49.010;12.034;2022-12-18T00:06:34;1.00;99.90
20204;DHT22;10261;49.010;12.034;2022-12-18T00:07:37;1.20;99.90
20204;DHT22;10261;49.010;12.034;2022-12-18T00:08:39;1.00;99.90
20204;DHT22;10261;49.010;12.034;2022-12-18T00:09:44;1.00;99.90
20204;DHT22;10261;49.010;12.034;2022-12-18T00:10:46;1.00;99.90
20204;DHT22;10261;49.010;12.034;2022-12-18T00:11:49;1.10;99.90
20204;DHT22;10261;49.010;12.034;2022-12-18T00:12:51;1.10;99.90
20204;DHT22;10261;49.010;12.034;2022-12-18T00:13:56;1.10;99.90
20204;DHT22;10261;49.010;12.034;2022-12-18T00:14:58;1.20;99.90
20204;DHT22;10261;49.010;12.034;2022-12-18T00:16:02;1.20;99.90
20204;DHT22;10261;49.010;12.034;2022-12-18T00:17:04;1.30;99.90
20204;DHT22;10261;49.010;12.034;2022-12-18T00:18:07;1.10;99.90
20204;DHT22;10261;49.010;12.034;2022-12-18T00:19:10;1.20;99.90
20204;DHT22;10261;49.010;12.034;2022-12-18T00:20:13;1.20;99.90
20204;DHT22;10261;49.010;12.034;2022-12-18T00:21:15;1.20;99.90
20204;DHT22;10261;49.010;12.034;2022-12-18T00:22:18;1.20;99.90
20204;DHT22;10261;49.010;12.034;2022-12-18T00:23:21;1.20;99.90
20204;DHT22;10261;49.010;12.034;2022-12-18T00:24:23;1.10;99.90
20204;DHT22;10261;49.010;12.034;2022-12-18T00:25:28;1.10;99.90
20204;DHT22;10261;49.010;12.034;2022-12-18T00:26:31;1.00;99.90
20204;DHT22;10261;49.010;12.034;2022-12-18T00:27:35;1.10;99.90
20204;DHT22;10261;49.010;12.034;2022-12-18T00:28:37;1.10;99.90
20204;DHT22;10261;49.010;12.034;2022-12-18T00:29:40;1.10;99.90
20204;DHT22;10261;49.010;12.034;2022-12-18T00:30:42;1.20;99.90
20204;DHT22;10261;49.010;12.034;2022-12-18T00:31:45;1.20;99.90
20204;DHT22;10261;49.010;12.034;2022-12-18T00:32:47;1.30;99.90
20204;DHT22;10261;49.010;12.034;2022-12-18T00:33:50;1.30;99.90
20204;DHT22;10261;49.010;12.034;2022-12-18T00:34:55;1.20;99.90
20204;DHT22;10261;49.010;12.034;2022-12-18T00:36:00;1.20;99.90
20204;DHT22;10261;49.010;12.034;2022-12-18T00:37:03;1.20;99.90
20204;DHT22;10261;49.010;12.034;2022-12-18T00:38:05;1.20;99.90
20204;DHT22;10261;49.010;12.034;2022-12-18T00:39:09;1.20;99.90
20204;DHT22;10261;49.010;12.034;2022-12-18T00:40:12;1.10;99.90
20204;DHT22;10261;49.010;12.034;2022-12-18T00:41:17;1.00;99.90
20204;DHT22;10261;49.010;12.034;2022-12-18T00:42:41;1.10;99.90
20204;DHT22;10261;49.010;12.034;2022-12-18T00:43:57;1.20;99.90
20204;DHT22;10261;49.010;12.034;2022-12-18T00:44:59;1.20;99.90
20204;DHT22;10261;49.010;12.034;2022-12-18T00:46:06;1.10;99.90
20204;DHT22;10261;49.010;12.034;2022-12-18T00:47:08;1.00;99.90
20204;DHT22;10261;49.010;12.034;2022-12-18T00:48:11;0.90;99.90
20204;DHT22;10261;49.010;12.034;2022-12-18T00:49:13;1.00;99.90
20204;DHT22;10261;49.010;12.034;2022-12-18T00:50:16;1.10;99.90
20204;DHT22;10261;49.010;12.034;2022-12-18T00:51:18;1.10;99.90
20204;DHT22;10261;49.010;12.034;2022-12-18T00:52:21;1.20;99.90
20204;DHT22;10261;49.010;12.034;2022-12-18T00:53:23;1.30;99.90
20204;DHT22;10261;49.010;12.034;2022-12-18T00:54:26;1.20;99.90
20204;DHT22;10261;49.010;12.034;2022-12-18T00:55:28;1.20;99.90
20204;DHT22;10261;49.010;12.034;2022-12-18T00:56:32;1.20;99.90
20204;DHT22;10261;49.010;12.034;2022-12-18T00:57:40;1.20;99.90
20204;DHT22;10261;49.010;12.034;2022-12-18T00:58:43;1.20;99.90
20204;DHT22;10261;49.010;12.034;2022-12-18T00:59:45;1.20;99.90
20204;DHT22;10261;49.010;12.034;2022-12-18T01:00:48;1.20;99.90
20204;DHT22;10261;49.010;12.034;2022-12-18T01:01:50;1.10;99.90
20204;DHT22;10261;49.010;12.034;2022-12-18T01:02:53;1.10;99.90
20204;DHT22;10261;49.010;12.034;2022-12-18T01:03:55;1.10;99.90
20204;DHT22;10261;49.010;12.034;2022-12-18T01:04:58;1.00;99.90
20204;DHT22;10261;49.010;12.034;2022-12-18T01:06:06;1.00;99.90
20204;DHT22;10261;49.010;12.034;2022-12-18T01:07:09;1.00;99.90
20204;DHT22;10261;49.010;12.034;2022-12-18T01:08:11;1.00;99.90
20204;DHT22;10261;49.010;12.034;2022-12-18T01:09:14;1.00;99.90
20204;DHT22;10261;49.010;12.034;2022-12-18T01:10:16;1.10;99.90
20204;DHT22;10261;49.010;12.034;2022-12-18T01:11:20;1.10;99.90
20204;DHT22;10261;49.010;12.034;2022-12-18T01:12:24;1.10;99.90
20204;DHT22;10261;49.010;12.034;2022-12-18T01:13:27;1.20;99.90
20204;DHT22;10261;49.010;12.034;2022-12-18T01:14:29;1.40;99.90
20204;DHT22;10261;49.010;12.034;2022-12-18T01:15:32;1.30;99.90
20204;DHT22;10261;49.010;12.034;2022-12-18T01:16:34;1.30;99.90
20204;DHT22;10261;49.010;12.034;2022-12-18T01:17:37;1.40;99.90
20204;DHT22;10261;49.010;12.034;2022-12-18T01:18:39;1.40;99.90
20204;DHT22;10261;49.010;12.034;2022-12-18T01:19:42;1.40;99.90
20204;DHT22;10261;49.010;12.034;2022-12-18T01:20:44;1.30;99.90
20204;DHT22;10261;49.010;12.034;2022-12-18T01:21:47;1.30;99.90
20204;DHT22;10261;49.010;12.034;2022-12-18T01:22:49;1.20;99.90
20204;DHT22;10261;49.010;12.034;2022-12-18T01:23:54;1.30;99.90
20204;DHT22;10261;49.010;12.034;2022-12-18T01:24:57;1.20;99.90
20204;DHT22;10261;49.010;12.034;2022-12-18T01:26:04;1.20;99.90
20204;DHT22;10261;49.010;12.034;2022-12-18T01:27:06;1.20;99.90
20204;DHT22;10261;49.010;12.034;2022-12-18T01:28:10;1.20;99.90
20204;DHT22;10261;49.010;12.034;2022-12-18T01:29:12;1.30;99.90
20204;DHT22;10261;49.010;12.034;2022-12-18T01:30:15;1.30;99.90
20204;DHT22;10261;49.010;12.034;2022-12-18T01:31:19;1.30;99.90
20204;DHT22;10261;49.010;12.034;2022-12-18T01:32:23;1.30;99.90
20204;DHT22;10261;49.010;12.034;2022-12-18T01:33:25;1.30;99.90
20204;DHT22;10261;49.010;12.034;2022-12-18T01:34:27;1.30;99.90
20204;DHT22;10261;49.010;12.034;2022-12-18T01:35:29;1.00;99.90
20204;DHT22;10261;49.010;12.034;2022-12-18T01:36:34;1.10;99.90
20204;DHT22;10261;49.010;12.034;2022-12-18T01:37:36;1.10;99.90
20204;DHT22;10261;49.010;12.034;2022-12-18T01:38:39;1.20;99.90
20204;DHT22;10261;49.010;12.034;2022-12-18T01:39:41;1.20;99.90
20204;DHT22;10261;49.010;12.034;2022-12-18T01:40:44;1.00;99.90
20204;DHT22;10261;49.010;12.034;2022-12-18T01:41:46;1.20;99.90
20204;DHT22;10261;49.010;12.034;2022-12-18T01:43:04;1.20;99.90
20204;DHT22;10261;49.010;12.034;2022-12-18T01:45:44;1.30;99.90
20204;DHT22;10261;49.010;12.034;2022-12-18T01:46:46;1.30;99.90
20204;DHT22;10261;49.010;12.034;2022-12-18T01:47:51;1.30;99.90
20204;DHT22;10261;49.010;12.034;2022-12-18T01:48:57;1.20;99.90
20204;DHT22;10261;49.010;12.034;2022-12-18T01:50:03;1.20;99.90
20204;DHT22;10261;49.010;12.034;2022-12-18T01:51:08;1.20;99.90
20204;DHT22;10261;49.010;12.034;2022-12-18T01:52:12;1.20;99.90
20204;DHT22;10261;49.010;12.034;2022-12-18T01:53:16;1.30;99.90
20204;DHT22;10261;49.010;12.034;2022-12-18T01:54:20;1.30;99.90
20204;DHT22;10261;49.010;12.034;2022-12-18T01:55:24;1.40;99.90
20204;DHT22;10261;49.010;12.034;2022-12-18T01:56:28;1.40;99.90
20204;DHT22;10261;49.010;12.034;2022-12-18T01:57:30;1.30;99.90
20204;DHT22;10261;49.010;12.034;2022-12-18T01:58:39;1.30;99.90
20204;DHT22;10261;49.010;12.034;2022-12-18T01:59:45;1.30;99.90
20204;DHT22;10261;49.010;12.034;2022-12-18T02:00:51;1.20;99.90
20204;DHT22;10261;49.010;12.034;2022-12-18T02:01:53;1.20;99.90
20204;DHT22;10261;49.010;12.034;2022-12-18T02:02:56;1.20;99.90
20204;DHT22;10261;49.010;12.034;2022-12-18T02:04:19;1.20;99.90
20204;DHT22;10261;49.010;12.034;2022-12-18T02:05:31;1.10;99.90
20204;DHT22;10261;49.010;12.034;2022-12-18T02:06:39;1.10;99.90
20204;DHT22;10261;49.010;12.034;2022-12-18T02:07:51;1.00;99.90
20204;DHT22;10261;49.010;12.034;2022-12-18T02:09:03;1.00;99.90
20204;DHT22;10261;49.010;12.034;2022-12-18T02:10:15;1.00;99.90
20204;DHT22;10261;49.010;12.034;2022-12-18T02:11:28;1.00;99.90
20204;DHT22;10261;49.010;12.034;2022-12-18T02:12:39;1.10;99.90
20204;DHT22;10261;49.010;12.034;2022-12-18T02:13:49;1.20;99.90
20204;DHT22;10261;49.010;12.034;2022-12-18T02:14:58;1.10;99.90
20204;DHT22;10261;49.010;12.034;2022-12-18T02:16:07;1.10;99.90
20204;DHT22;10261;49.010;12.034;2022-12-18T02:17:18;1.00;99.90
20204;DHT22;10261;49.010;12.034;2022-12-18T02:18:23;1.10;99.90
20204;DHT22;10261;49.010;12.034;2022-12-18T02:19:44;1.20;99.90
20204;DHT22;10261;49.010;12.034;2022-12-18T02:20:52;1.20;99.90
20204;DHT22;10261;49.010;12.034;2022-12-18T02:22:04;1.20;99.90
20204;DHT22;10261;49.010;12.034;2022-12-18T02:23:19;1.20;99.90
20204;DHT22;10261;49.010;12.034;2022-12-18T02:24:32;1.10;99.90
20204;DHT22;10261;49.010;12.034;2022-12-18T02:26:01;1.20;99.90
20204;DHT22;10261;49.010;12.034;2022-12-18T02:27:08;1.20;99.90
20204;DHT22;10261;49.010;12.034;2022-12-18T02:28:13;1.20;99.90
20204;DHT22;10261;49.010;12.034;2022-12-18T02:29:21;1.30;99.90
20204;DHT22;10261;49.010;12.034;2022-12-18T02:30:25;1.30;99.90
20204;DHT22;10261;49.010;12.034;2022-12-18T02:31:30;1.30;99.90
20204;DHT22;10261;49.010;12.034;2022-12-18T02:32:37;1.10;99.90
20204;DHT22;10261;49.010;12.034;2022-12-18T02:33:43;1.00;99.90
20204;DHT22;10261;49.010;12.034;2022-12-18T02:34:46;1.10;99.90
20204;DHT22;10261;49.010;12.034;2022-12-18T02:35:52;1.10;99.90
20204;DHT22;10261;49.010;12.034;2022-12-18T02:36:57;1.20;99.90
20204;DHT22;10261;49.010;12.034;2022-12-18T02:38:02;1.20;99.90
20204;DHT22;10261;49.010;12.034;2022-12-18T02:39:05;1.30;99.90
20204;DHT22;10261;49.010;12.034;2022-12-18T02:40:11;1.30;99.90
20204;DHT22;10261;49.010;12.034;2022-12-18T02:41:16;1.30;99.90
20204;DHT22;10261;49.010;12.034;2022-12-18T02:42:19;1.30;99.90
20204;DHT22;10261;49.010;12.034;2022-12-18T02:43:21;1.30;99.90
20204;DHT22;10261;49.010;12.034;2022-12-18T02:44:24;1.40;99.90
20204;DHT22;10261;49.010;12.034;2022-12-18T02:45:26;1.30;99.90
20204;DHT22;10261;49.010;12.034;2022-12-18T02:46:33;1.30;99.90
20204;DHT22;10261;49.010;12.034;2022-12-18T02:47:38;1.30;99.90
20204;DHT22;10261;49.010;12.034;2022-12-18T02:48:43;1.30;99.90
20204;DHT22;10261;49.010;12.034;2022-12-18T02:49:53;1.20;99.90
20204;DHT22;10261;49.010;12.034;2022-12-18T02:51:03;1.10;99.90
20204;DHT22;10261;49.010;12.034;2022-12-18T02:52:17;1.10;99.90
20204;DHT22;10261;49.010;12.034;2022-12-18T02:53:26;1.00;99.90
20204;DHT22;10261;49.010;12.034;2022-12-18T02:54:38;1.10;99.90
20204;DHT22;10261;49.010;12.034;2022-12-18T02:55:56;1.10;99.90
20204;DHT22;10261;49.010;12.034;2022-12-18T02:57:06;1.10;99.90
20204;DHT22;10261;49.010;12.034;2022-12-18T02:58:16;1.10;99.90
20204;DHT22;10261;49.010;12.034;2022-12-18T02:59:27;1.20;99.90
20204;DHT22;10261;49.010;12.034;2022-12-18T03:00:35;1.20;99.90
20204;DHT22;10261;49.010;12.034;2022-12-18T03:01:45;1.20;99.90
20204;DHT22;10261;49.010;12.034;2022-12-18T03:02:53;1.10;99.90
20204;DHT22;10261;49.010;12.034;2022-12-18T03:03:59;1.20;99.90
20204;DHT22;10261;49.010;12.034;2022-12-18T03:05:08;1.10;99.90
20204;DHT22;10261;49.010;12.034;2022-12-18T03:06:18;1.20;99.90
20204;DHT22;10261;49.010;12.034;2022-12-18T03:07:27;1.30;99.90
20204;DHT22;10261;49.010;12.034;2022-12-18T03:08:34;0.30;99.90
20204;DHT22;10261;49.010;12.034;2022-12-18T03:09:42;1.30;99.90
20204;DHT22;10261;49.010;12.034;2022-12-18T03:10:51;1.30;99.90
20204;DHT22;10261;49.010;12.034;2022-12-18T03:12:00;1.30;99.90
20204;DHT22;10261;49.010;12.034;2022-12-18T03:13:26;1.30;99.90
20204;DHT22;10261;49.010;12.034;2022-12-18T03:14:32;1.30;99.90
20204;DHT22;10261;49.010;12.034;2022-12-18T03:15:38;1.40;99.90
20204;DHT22;10261;49.010;12.034;2022-12-18T03:16:42;1.30;99.90
20204;DHT22;10261;49.010;12.034;2022-12-18T03:17:49;1.30;99.90
20204;DHT22;10261;49.010;12.034;2022-12-18T03:18:55;1.20;99.90
20204;DHT22;10261;49.010;12.034;2022-12-18T03:20:04;1.00;99.90
20204;DHT22;10261;49.010;12.034;2022-12-18T03:21:10;1.00;99.90
20204;DHT22;10261;49.010;12.034;2022-12-18T03:22:13;0.90;99.90
20204;DHT22;10261;49.010;12.034;2022-12-18T03:23:22;1.00;99.90
20204;DHT22;10261;49.010;12.034;2022-12-18T03:24:29;1.00;99.90
20204;DHT22;10261;49.010;12.034;2022-12-18T03:25:35;1.00;99.90
20204;DHT22;10261;49.010;12.034;2022-12-18T03:26:43;1.00;99.90
20204;DHT22;10261;49.010;12.034;2022-12-18T03:27:49;1.10;99.90
20204;DHT22;10261;49.010;12.034;2022-12-18T03:28:57;1.10;99.90
20204;DHT22;10261;49.010;12.034;2022-12-18T03:30:04;1.10;99.90
20204;DHT22;10261;49.010;12.034;2022-12-18T03:31:10;1.00;99.90
20204;DHT22;10261;49.010;12.034;2022-12-18T03:32:18;1.00;99.90
20204;DHT22;10261;49.010;12.034;2022-12-18T03:33:26;0.90;99.90
20204;DHT22;10261;49.010;12.034;2022-12-18T03:34:32;0.90;99.90
20204;DHT22;10261;49.010;12.034;2022-12-18T03:35:38;0.80;99.90
20204;DHT22;10261;49.010;12.034;2022-12-18T03:36:42;0.80;99.90
20204;DHT22;10261;49.010;12.034;2022-12-18T03:37:44;0.80;99.90
20204;DHT22;10261;49.010;12.034;2022-12-18T03:38:47;0.80;99.90
20204;DHT22;10261;49.010;12.034;2022-12-18T03:39:49;0.90;99.90
20204;DHT22;10261;49.010;12.034;2022-12-18T03:40:58;1.00;99.90
20204;DHT22;10261;49.010;12.034;2022-12-18T03:42:05;1.00;99.90
20204;DHT22;10261;49.010;12.034;2022-12-18T03:43:15;1.20;99.90
20204;DHT22;10261;49.010;12.034;2022-12-18T03:44:26;1.20;99.90
20204;DHT22;10261;49.010;12.034;2022-12-18T03:45:35;1.20;99.90
20204;DHT22;10261;49.010;12.034;2022-12-18T03:46:42;1.30;99.90
20204;DHT22;10261;49.010;12.034;2022-12-18T03:47:56;1.40;99.90
20204;DHT22;10261;49.010;12.034;2022-12-18T03:49:08;1.30;99.90
20204;DHT22;10261;49.010;12.034;2022-12-18T03:50:15;1.30;99.90
20204;DHT22;10261;49.010;12.034;2022-12-18T03:51:23;1.30;99.90
20204;DHT22;10261;49.010;12.034;2022-12-18T03:52:30;1.30;99.90
20204;DHT22;10261;49.010;12.034;2022-12-18T03:53:40;1.30;99.90
20204;DHT22;10261;49.010;12.034;2022-12-18T03:54:45;1.30;99.90
20204;DHT22;10261;49.010;12.034;2022-12-18T03:55:48;1.40;99.90
20204;DHT22;10261;49.010;12.034;2022-12-18T03:56:57;1.40;99.90
20204;DHT22;10261;49.010;12.034;2022-12-18T03:58:01;1.40;99.90
20204;DHT22;10261;49.010;12.034;2022-12-18T03:59:05;1.30;99.90
20204;DHT22;10261;49.010;12.034;2022-12-18T04:00:11;1.30;99.90
20204;DHT22;10261;49.010;12.034;2022-12-18T04:01:16;1.30;99.90
20204;DHT22;10261;49.010;12.034;2022-12-18T04:02:20;1.30;99.90
20204;DHT22;10261;49.010;12.034;2022-12-18T04:03:27;1.40;99.90
20204;DHT22;10261;49.010;12.034;2022-12-18T04:04:31;1.30;99.90
20204;DHT22;10261;49.010;12.034;2022-12-18T04:05:35;1.50;99.90
20204;DHT22;10261;49.010;12.034;2022-12-18T04:06:39;1.40;99.90
20204;DHT22;10261;49.010;12.034;2022-12-18T04:07:43;1.30;99.90
20204;DHT22;10261;49.010;12.034;2022-12-18T04:08:47;1.30;99.90
20204;DHT22;10261;49.010;12.034;2022-12-18T04:09:51;1.40;99.90
20204;DHT22;10261;49.010;12.034;2022-12-18T04:10:55;1.40;99.90
20204;DHT22;10261;49.010;12.034;2022-12-18T04:11:58;1.40;99.90
20204;DHT22;10261;49.010;12.034;2022-12-18T04:13:00;1.40;99.90
20204;DHT22;10261;49.010;12.034;2022-12-18T04:14:03;1.40;99.90
20204;DHT22;10261;49.010;12.034;2022-12-18T04:15:10;1.40;99.90
20204;DHT22;10261;49.010;12.034;2022-12-18T04:16:14;1.40;99.90
20204;DHT22;10261;49.010;12.034;2022-12-18T04:17:16;1.50;99.90
20204;DHT22;10261;49.010;12.034;2022-12-18T04:18:19;1.30;99.90
20204;DHT22;10261;49.010;12.034;2022-12-18T04:19:21;1.40;99.90
20204;DHT22;10261;49.010;12.034;2022-12-18T04:20:24;1.40;99.90
20204;DHT22;10261;49.010;12.034;2022-12-18T04:21:26;1.30;99.90
20204;DHT22;10261;49.010;12.034;2022-12-18T04:22:29;1.50;99.90
20204;DHT22;10261;49.010;12.034;2022-12-18T04:23:31;1.30;99.90
20204;DHT22;10261;49.010;12.034;2022-12-18T04:24:34;1.30;99.90
20204;DHT22;10261;49.010;12.034;2022-12-18T04:25:36;1.30;99.90
20204;DHT22;10261;49.010;12.034;2022-12-18T04:26:39;1.20;99.90
20204;DHT22;10261;49.010;12.034;2022-12-18T04:27:41;1.40;99.90
20204;DHT22;10261;49.010;12.034;2022-12-18T04:28:44;1.30;99.90
20204;DHT22;10261;49.010;12.034;2022-12-18T04:29:46;1.40;99.90
20204;DHT22;10261;49.010;12.034;2022-12-18T04:30:50;1.30;99.90
20204;DHT22;10261;49.010;12.034;2022-12-18T04:31:52;1.30;99.90
20204;DHT22;10261;49.010;12.034;2022-12-18T04:32:55;1.20;99.90
20204;DHT22;10261;49.010;12.034;2022-12-18T04:33:57;1.10;99.90
20204;DHT22;10261;49.010;12.034;2022-12-18T04:35:00;1.20;99.90
20204;DHT22;10261;49.010;12.034;2022-12-18T04:36:02;1.20;99.90
20204;DHT22;10261;49.010;12.034;2022-12-18T04:37:05;1.10;99.90
20204;DHT22;10261;49.010;12.034;2022-12-18T04:38:08;1.00;99.90
20204;DHT22;10261;49.010;12.034;2022-12-18T04:39:11;1.10;99.90
20204;DHT22;10261;49.010;12.034;2022-12-18T04:40:14;1.20;99.90
20204;DHT22;10261;49.010;12.034;2022-12-18T04:41:16;1.30;99.90
20204;DHT22;10261;49.010;12.034;2022-12-18T04:42:19;1.30;99.90
20204;DHT22;10261;49.010;12.034;2022-12-18T04:43:21;1.40;99.90
20204;DHT22;10261;49.010;12.034;2022-12-18T04:44:24;1.30;99.90
20204;DHT22;10261;49.010;12.034;2022-12-18T04:45:26;1.40;99.90
20204;DHT22;10261;49.010;12.034;2022-12-18T04:46:31;1.40;99.90
20204;DHT22;10261;49.010;12.034;2022-12-18T04:47:33;1.30;99.90
20204;DHT22;10261;49.010;12.034;2022-12-18T04:48:36;1.30;99.90
20204;DHT22;10261;49.010;12.034;2022-12-18T04:49:38;1.30;99.90
20204;DHT22;10261;49.010;12.034;2022-12-18T04:50:41;1.40;99.90
20204;DHT22;10261;49.010;12.034;2022-12-18T04:51:43;1.40;99.90
20204;DHT22;10261;49.010;12.034;2022-12-18T04:52:46;1.30;99.90
20204;DHT22;10261;49.010;12.034;2022-12-18T04:53:48;1.30;99.90
20204;DHT22;10261;49.010;12.034;2022-12-18T04:54:51;1.30;99.90
20204;DHT22;10261;49.010;12.034;2022-12-18T04:56:02;1.30;99.90
20204;DHT22;10261;49.010;12.034;2022-12-18T04:57:06;1.40;99.90
20204;DHT22;10261;49.010;12.034;2022-12-18T04:58:07;1.50;99.90
20204;DHT22;10261;49.010;12.034;2022-12-18T04:59:10;1.40;99.90
20204;DHT22;10261;49.010;12.034;2022-12-18T05:00:13;1.40;99.90
20204;DHT22;10261;49.010;12.034;2022-12-18T05:01:17;1.50;99.90
20204;DHT22;10261;49.010;12.034;2022-12-18T05:02:21;1.40;99.90
20204;DHT22;10261;49.010;12.034;2022-12-18T05:03:24;1.50;99.90
20204;DHT22;10261;49.010;12.034;2022-12-18T05:04:26;1.40;99.90
20204;DHT22;10261;49.010;12.034;2022-12-18T05:05:29;1.50;99.90
20204;DHT22;10261;49.010;12.034;2022-12-18T05:06:31;1.50;99.90
20204;DHT22;10261;49.010;12.034;2022-12-18T05:07:34;1.40;99.90
20204;DHT22;10261;49.010;12.034;2022-12-18T05:08:36;1.40;99.90
20204;DHT22;10261;49.010;12.034;2022-12-18T05:09:39;1.20;99.90
20204;DHT22;10261;49.010;12.034;2022-12-18T05:10:42;1.20;99.90
20204;DHT22;10261;49.010;12.034;2022-12-18T05:11:46;1.20;99.90
20204;DHT22;10261;49.010;12.034;2022-12-18T05:12:48;1.30;99.90
20204;DHT22;10261;49.010;12.034;2022-12-18T05:14:02;1.30;99.90
20204;DHT22;10261;49.010;12.034;2022-12-18T05:15:05;1.40;99.90
20204;DHT22;10261;49.010;12.034;2022-12-18T05:16:08;1.40;99.90
20204;DHT22;10261;49.010;12.034;2022-12-18T05:17:10;1.30;99.90
20204;DHT22;10261;49.010;12.034;2022-12-18T05:18:15;1.40;99.90
20204;DHT22;10261;49.010;12.034;2022-12-18T05:19:17;1.30;99.90
20204;DHT22;10261;49.010;12.034;2022-12-18T05:20:20;1.30;99.90
20204;DHT22;10261;49.010;12.034;2022-12-18T05:21:22;1.10;99.90
20204;DHT22;10261;49.010;12.034;2022-12-18T05:22:25;1.10;99.90
20204;DHT22;10261;49.010;12.034;2022-12-18T05:23:28;1.10;99.90
20204;DHT22;10261;49.010;12.034;2022-12-18T05:24:31;1.10;99.90
20204;DHT22;10261;49.010;12.034;2022-12-18T05:25:33;1.00;99.90
20204;DHT22;10261;49.010;12.034;2022-12-18T05:26:36;1.10;99.90
20204;DHT22;10261;49.010;12.034;2022-12-18T05:27:38;1.10;99.90
20204;DHT22;10261;49.010;12.034;2022-12-18T05:28:41;1.00;99.90
20204;DHT22;10261;49.010;12.034;2022-12-18T05:29:43;1.10;99.90
20204;DHT22;10261;49.010;12.034;2022-12-18T05:30:48;1.10;99.90
20204;DHT22;10261;49.010;12.034;2022-12-18T05:31:51;1.00;99.90
20204;DHT22;10261;49.010;12.034;2022-12-18T05:32:54;1.00;99.90
20204;DHT22;10261;49.010;12.034;2022-12-18T05:33:57;1.10;99.90
20204;DHT22;10261;49.010;12.034;2022-12-18T05:35:00;1.20;99.90
20204;DHT22;10261;49.010;12.034;2022-12-18T05:36:04;1.10;99.90
20204;DHT22;10261;49.010;12.034;2022-12-18T05:37:08;1.10;99.90
20204;DHT22;10261;49.010;12.034;2022-12-18T05:38:10;1.20;99.90
20204;DHT22;10261;49.010;12.034;2022-12-18T05:39:13;1.20;99.90
20204;DHT22;10261;49.010;12.034;2022-12-18T05:40:15;1.30;99.90
20204;DHT22;10261;49.010;12.034;2022-12-18T05:41:18;1.30;99.90
20204;DHT22;10261;49.010;12.034;2022-12-18T05:42:20;1.20;99.90
20204;DHT22;10261;49.010;12.034;2022-12-18T05:43:23;1.20;99.90
20204;DHT22;10261;49.010;12.034;2022-12-18T05:44:26;1.20;99.90
20204;DHT22;10261;49.010;12.034;2022-12-18T05:45:28;1.20;99.90
20204;DHT22;10261;49.010;12.034;2022-12-18T05:46:30;1.20;99.90
20204;DHT22;10261;49.010;12.034;2022-12-18T05:47:33;1.30;99.90
20204;DHT22;10261;49.010;12.034;2022-12-18T05:48:36;1.30;99.90
20204;DHT22;10261;49.010;12.034;2022-12-18T05:49:40;1.30;99.90
20204;DHT22;10261;49.010;12.034;2022-12-18T05:50:43;1.20;99.90
20204;DHT22;10261;49.010;12.034;2022-12-18T05:51:47;1.30;99.90
20204;DHT22;10261;49.010;12.034;2022-12-18T05:52:49;1.30;99.90
20204;DHT22;10261;49.010;12.034;2022-12-18T05:53:52;1.30;99.90
20204;DHT22;10261;49.010;12.034;2022-12-18T05:54:54;1.30;99.90
20204;DHT22;10261;49.010;12.034;2022-12-18T05:56:00;1.30;99.90
20204;DHT22;10261;49.010;12.034;2022-12-18T05:57:02;1.30;99.90
20204;DHT22;10261;49.010;12.034;2022-12-18T05:58:06;1.20;99.90
20204;DHT22;10261;49.010;12.034;2022-12-18T05:59:08;1.20;99.90
20204;DHT22;10261;49.010;12.034;2022-12-18T06:00:12;1.20;99.90
20204;DHT22;10261;49.010;12.034;2022-12-18T06:01:17;1.20;99.90
20204;DHT22;10261;49.010;12.034;2022-12-18T06:02:20;1.20;99.90
20204;DHT22;10261;49.010;12.034;2022-12-18T06:03:23;1.30;99.90
20204;DHT22;10261;49.010;12.034;2022-12-18T06:04:34;1.20;99.90
20204;DHT22;10261;49.010;12.034;2022-12-18T06:05:39;1.20;99.90
20204;DHT22;10261;49.010;12.034;2022-12-18T06:06:42;1.20;99.90
20204;DHT22;10261;49.010;12.034;2022-12-18T06:07:44;1.20;99.90
20204;DHT22;10261;49.010;12.034;2022-12-18T06:08:47;1.20;99.90
20204;DHT22;10261;49.010;12.034;2022-12-18T06:09:49;1.20;99.90
20204;DHT22;10261;49.010;12.034;2022-12-18T06:10:53;1.30;99.90
20204;DHT22;10261;49.010;12.034;2022-12-18T06:11:55;1.30;99.90
20204;DHT22;10261;49.010;12.034;2022-12-18T06:12:58;1.20;99.90
20204;DHT22;10261;49.010;12.034;2022-12-18T06:14:00;1.20;99.90
20204;DHT22;10261;49.010;12.034;2022-12-18T06:15:04;1.20;99.90
20204;DHT22;10261;49.010;12.034;2022-12-18T06:16:07;1.30;99.90
20204;DHT22;10261;49.010;12.034;2022-12-18T06:17:10;1.30;99.90
20204;DHT22;10261;49.010;12.034;2022-12-18T06:18:12;1.30;99.90
20204;DHT22;10261;49.010;12.034;2022-12-18T06:19:16;1.30;99.90
20204;DHT22;10261;49.010;12.034;2022-12-18T06:20:18;1.30;99.90
20204;DHT22;10261;49.010;12.034;2022-12-18T06:21:22;1.30;99.90
20204;DHT22;10261;49.010;12.034;2022-12-18T06:22:25;1.40;99.90
20204;DHT22;10261;49.010;12.034;2022-12-18T06:23:28;1.40;99.90
20204;DHT22;10261;49.010;12.034;2022-12-18T06:24:30;1.30;99.90
20204;DHT22;10261;49.010;12.034;2022-12-18T06:25:33;1.20;99.90
20204;DHT22;10261;49.010;12.034;2022-12-18T06:26:37;1.20;99.90
20204;DHT22;10261;49.010;12.034;2022-12-18T06:27:40;1.30;99.90
20204;DHT22;10261;49.010;12.034;2022-12-18T06:28:43;1.20;99.90
20204;DHT22;10261;49.010;12.034;2022-12-18T06:29:46;1.20;99.90
20204;DHT22;10261;49.010;12.034;2022-12-18T06:30:49;1.20;99.90
20204;DHT22;10261;49.010;12.034;2022-12-18T06:31:52;1.30;99.90
20204;DHT22;10261;49.010;12.034;2022-12-18T06:32:54;1.20;99.90
20204;DHT22;10261;49.010;12.034;2022-12-18T06:33:58;1.10;99.90
20204;DHT22;10261;49.010;12.034;2022-12-18T06:35:00;1.10;99.90
20204;DHT22;10261;49.010;12.034;2022-12-18T06:36:05;1.10;99.90
20204;DHT22;10261;49.010;12.034;2022-12-18T06:37:10;1.10;99.90
20204;DHT22;10261;49.010;12.034;2022-12-18T06:38:13;1.20;99.90
20204;DHT22;10261;49.010;12.034;2022-12-18T06:39:14;1.20;99.90
20204;DHT22;10261;49.010;12.034;2022-12-18T06:40:17;1.30;99.90
20204;DHT22;10261;49.010;12.034;2022-12-18T06:41:21;1.20;99.90
20204;DHT22;10261;49.010;12.034;2022-12-18T06:42:24;1.20;99.90
20204;DHT22;10261;49.010;12.034;2022-12-18T06:43:26;1.00;99.90
20204;DHT22;10261;49.010;12.034;2022-12-18T06:44:29;0.90;99.90
20204;DHT22;10261;49.010;12.034;2022-12-18T06:45:31;1.00;99.90
20204;DHT22;10261;49.010;12.034;2022-12-18T06:46:34;1.00;99.90
20204;DHT22;10261;49.010;12.034;2022-12-18T06:47:37;1.00;99.90
20204;DHT22;10261;49.010;12.034;2022-12-18T06:48:39;1.00;99.90
20204;DHT22;10261;49.010;12.034;2022-12-18T06:49:43;1.00;99.90